Main page
METAR-TAF:

METAR-TAF

Airports :

Bergerac Dordogne Périgord Airport

Bergerac, France

latitude: 44-49N, longitude: 000-31E, elevation: 51 m

Current weather observation

The report was made 32 minutes ago, at 06:30 UTC
Wind 4 kt from the East/Northeast
Temperature 1°C
Humidity 100%
Pressure 1008 hPa
Visibility 10 km or more
no clouds below 1500 m and no cumulonimbus

METAR: LFBE 080630Z AUTO 07004KT CAVOK 01/01 Q1008 NOSIG

Time: 08:02 (07:02 UTC)

Forecast

The report was made 2 hours and 2 minutes ago, at 05:00 UTC
Forecast valid from 08 at 06 UTC to 09 at 06 UTC
Wind 5 kt from the East
Visibility 10 km or more
no clouds below 1500 m and no cumulonimbus
Becoming
from 08 at 18 UTC to 08 at 20 UTC
Visibility: 3000 m
Broken clouds at a height of 500 ft
Overcast at a height of 4000 ft
light rain

TAF: LFBE 080500Z 0806/0906 09005KT CAVOK BECMG 0818/0820 3000 -RA BKN005 OVC040

Weather observations and forecasts of more than 4000 airports (METAR and TAF reports).

The available stations are represented by yellow and red dots on the map.

Hover mouse over dot to see the name of the station.

Then click to see weather observations and forecasts.

To change the map : click on the green buttons with a black cross to zoom in, on the green button with a dash to zoom out, or on the green arrows for adjacent maps.


METAR-TAF: